Time;durP1;ratioP1;P1;durP2;ratioP2;P2;SDS_P1;SDS_P2;PMS_P1;PMS_P2;Temp;Humidity;BMP_temperature;BMP_pressure;BME280_temperature;BME280_humidity;BME280_pressure;Samples;Min_cycle;Max_cycle;Signal;HPM_P1;HPM_P2
2023/12/14 00:00:13;;;;;;;2.33;1.58;;;;;;;;;;5012352;28;20156;-86
2023/12/14 00:02:38;;;;;;;3.40;1.45;;;;;;;;;;5037117;28;20029;-86
2023/12/14 00:05:04;;;;;;;1.63;1.30;;;;;;;;;;5036459;28;20072;-86
2023/12/14 00:07:30;;;;;;;2.33;1.30;;;;;;;;;;5026654;28;20034;-86
2023/12/14 00:09:55;;;;;;;2.00;1.00;;;;;;;;;;5036944;28;20543;-86
2023/12/14 00:12:21;;;;;;;1.60;1.20;;;;;;;;;;5030508;28;20048;-85
2023/12/14 00:14:46;;;;;;;1.58;1.08;;;;;;;;;;5033055;28;20067;-87
2023/12/14 00:17:12;;;;;;;1.90;1.40;;;;;;;;;;5009633;28;20037;-86
2023/12/14 00:19:37;;;;;;;2.85;1.38;;;;;;;;;;5032210;28;20025;-86
2023/12/14 00:22:03;;;;;;;2.15;1.60;;;;;;;;;;5037253;28;20029;-86
2023/12/14 00:24:28;;;;;;;1.77;1.45;;;;;;;;;;5032084;28;20554;-86
2023/12/14 00:26:54;;;;;;;2.30;1.63;;;;;;;;;;5015922;28;20034;-86
2023/12/14 00:29:19;;;;;;;2.15;1.50;;;;;;;;;;5033987;28;20108;-86
2023/12/14 00:31:45;;;;;;;2.42;1.50;;;;;;;;;;5028267;28;20380;-85
2023/12/14 00:34:10;;;;;;;3.78;1.90;;;;;;;;;;5034036;28;20025;-86
2023/12/14 00:36:36;;;;;;;3.47;1.77;;;;;;;;;;5028974;28;20060;-85
2023/12/14 00:39:01;;;;;;;3.15;1.65;;;;;;;;;;5027579;28;20037;-85
2023/12/14 00:41:27;;;;;;;2.42;1.60;;;;;;;;;;5032283;28;20037;-85
2023/12/14 00:43:52;;;;;;;3.97;1.60;;;;;;;;;;5014831;28;20037;-86
2023/12/14 00:46:18;;;;;;;1.88;1.20;;;;;;;;;;5031408;28;20553;-86
2023/12/14 00:48:43;;;;;;;1.90;1.42;;;;;;;;;;5033563;28;20033;-87
2023/12/14 00:51:09;;;;;;;1.50;1.08;;;;;;;;;;5030537;28;20045;-86
2023/12/14 00:53:34;;;;;;;2.60;1.27;;;;;;;;;;5032687;28;20036;-86
2023/12/14 00:55:59;;;;;;;2.30;1.50;;;;;;;;;;5029988;28;20666;-86
2023/12/14 00:58:25;;;;;;;3.03;1.50;;;;;;;;;;5021502;28;20036;-86
2023/12/14 01:00:50;;;;;;;2.08;1.50;;;;;;;;;;5038276;28;20113;-85
2023/12/14 01:03:16;;;;;;;1.98;1.55;;;;;;;;;;5030008;28;21222;-86
2023/12/14 01:05:41;;;;;;;2.25;1.65;;;;;;;;;;5029083;28;20111;-86
2023/12/14 01:08:07;;;;;;;2.00;1.60;;;;;;;;;;5033600;28;20048;-87
2023/12/14 01:10:33;;;;;;;2.30;1.52;;;;;;;;;;5035615;28;20135;-87
2023/12/14 01:12:58;;;;;;;1.85;1.40;;;;;;;;;;5017065;28;20033;-86
2023/12/14 01:15:24;;;;;;;2.28;1.67;;;;;;;;;;5033750;28;20021;-86
2023/12/14 01:17:49;;;;;;;3.17;1.60;;;;;;;;;;5025355;28;20025;-86
2023/12/14 01:20:15;;;;;;;3.17;2.00;;;;;;;;;;4997623;28;20060;-86
2023/12/14 01:22:40;;;;;;;2.30;1.70;;;;;;;;;;5016826;28;20037;-86
2023/12/14 01:25:06;;;;;;;3.35;2.00;;;;;;;;;;5030996;28;20498;-85
2023/12/14 01:27:31;;;;;;;2.30;1.83;;;;;;;;;;5034415;28;20026;-85
2023/12/14 01:29:57;;;;;;;2.17;1.55;;;;;;;;;;5026931;28;20406;-86
2023/12/14 01:32:22;;;;;;;2.42;1.50;;;;;;;;;;5022396;28;20026;-86
2023/12/14 01:34:48;;;;;;;2.60;1.70;;;;;;;;;;5032564;28;20476;-86
2023/12/14 01:37:13;;;;;;;1.70;1.42;;;;;;;;;;5032478;28;20038;-86
2023/12/14 01:39:39;;;;;;;1.95;1.58;;;;;;;;;;5034203;28;20038;-85
2023/12/14 01:42:04;;;;;;;2.10;1.60;;;;;;;;;;5039663;28;20450;-85
2023/12/14 01:44:30;;;;;;;2.05;1.60;;;;;;;;;;5039165;28;20035;-85
2023/12/14 01:46:55;;;;;;;2.65;1.90;;;;;;;;;;5034884;28;20385;-86
2023/12/14 01:49:21;;;;;;;2.47;1.92;;;;;;;;;;5020736;28;20041;-84
2023/12/14 01:51:47;;;;;;;2.30;1.80;;;;;;;;;;5031176;28;20034;-85
2023/12/14 01:54:12;;;;;;;2.05;1.50;;;;;;;;;;5037170;28;20041;-85
2023/12/14 01:56:37;;;;;;;1.92;1.50;;;;;;;;;;5006865;28;20113;-85
2023/12/14 01:59:03;;;;;;;1.42;1.17;;;;;;;;;;5032271;28;20025;-85
2023/12/14 02:01:40;;;;;;;0.80;0.70;;;;;;;;;;5032799;28;20037;-85
2023/12/14 02:04:08;;;;;;;1.27;1.00;;;;;;;;;;5037862;28;20040;-86
2023/12/14 02:06:34;;;;;;;2.42;1.33;;;;;;;;;;5031507;28;20026;-85
2023/12/14 02:08:59;;;;;;;2.70;1.63;;;;;;;;;;5030866;28;20049;-85
2023/12/14 02:11:25;;;;;;;1.92;1.65;;;;;;;;;;5019997;28;20037;-85
2023/12/14 02:13:50;;;;;;;3.35;1.77;;;;;;;;;;4999115;28;20025;-84
2023/12/14 02:16:16;;;;;;;2.03;1.50;;;;;;;;;;5037800;28;20040;-86
2023/12/14 02:18:41;;;;;;;2.25;1.70;;;;;;;;;;5012750;28;20022;-85
2023/12/14 02:21:07;;;;;;;2.30;1.95;;;;;;;;;;5031429;28;20029;-85
2023/12/14 02:23:33;;;;;;;1.70;1.50;;;;;;;;;;5014529;28;20033;-85
2023/12/14 02:25:58;;;;;;;2.78;1.70;;;;;;;;;;5031507;28;20021;-85
2023/12/14 02:28:24;;;;;;;2.90;1.77;;;;;;;;;;5021537;28;20045;-85
2023/12/14 02:30:49;;;;;;;2.42;1.65;;;;;;;;;;5024261;28;20043;-86
2023/12/14 02:33:15;;;;;;;2.35;1.45;;;;;;;;;;5037477;28;20468;-86
2023/12/14 02:35:40;;;;;;;1.95;1.50;;;;;;;;;;5037775;28;20033;-86
2023/12/14 02:38:06;;;;;;;1.55;1.25;;;;;;;;;;5006862;28;20041;-86
2023/12/14 02:40:31;;;;;;;1.27;1.02;;;;;;;;;;5035216;28;20032;-85
2023/12/14 02:42:57;;;;;;;1.13;1.00;;;;;;;;;;5031231;28;20042;-86
2023/12/14 02:45:22;;;;;;;0.80;0.75;;;;;;;;;;5033178;28;20034;-85
2023/12/14 02:47:49;;;;;;;1.40;0.80;;;;;;;;;;5035657;28;20033;-85
2023/12/14 02:50:15;;;;;;;1.35;0.90;;;;;;;;;;5013886;28;20494;-85
2023/12/14 02:52:40;;;;;;;1.10;1.00;;;;;;;;;;5029606;28;20029;-86
2023/12/14 02:55:06;;;;;;;3.22;2.08;;;;;;;;;;5030387;28;20034;-85
2023/12/14 02:57:32;;;;;;;2.80;2.30;;;;;;;;;;5036667;28;20033;-86
2023/12/14 02:59:57;;;;;;;3.38;2.40;;;;;;;;;;5032932;28;20549;-86
2023/12/14 03:02:23;;;;;;;2.40;1.90;;;;;;;;;;5026816;28;20033;-85
2023/12/14 03:04:48;;;;;;;2.83;1.80;;;;;;;;;;5029478;28;20045;-86
2023/12/14 03:07:14;;;;;;;2.28;1.75;;;;;;;;;;5035460;28;20061;-86
2023/12/14 03:09:44;;;;;;;2.63;1.90;;;;;;;;;;5031011;28;20026;-85
2023/12/14 03:12:10;;;;;;;2.67;1.73;;;;;;;;;;5028465;28;20091;-85
2023/12/14 03:14:36;;;;;;;3.70;2.10;;;;;;;;;;5032895;28;20029;-86
2023/12/14 03:17:02;;;;;;;2.42;2.05;;;;;;;;;;5032459;28;20034;-85
2023/12/14 03:19:28;;;;;;;3.25;2.05;;;;;;;;;;5033159;28;20033;-86
2023/12/14 03:21:53;;;;;;;3.30;2.50;;;;;;;;;;5032799;28;20124;-86
2023/12/14 03:24:19;;;;;;;3.20;2.00;;;;;;;;;;5036151;28;20115;-86
2023/12/14 03:26:44;;;;;;;3.15;2.03;;;;;;;;;;5034557;28;20033;-85
2023/12/14 03:29:10;;;;;;;3.75;2.17;;;;;;;;;;5033362;28;20121;-85
2023/12/14 03:31:35;;;;;;;3.45;2.08;;;;;;;;;;5030090;28;20053;-86
2023/12/14 03:34:02;;;;;;;1.88;1.50;;;;;;;;;;5032986;28;20030;-86
2023/12/14 03:36:28;;;;;;;1.70;1.23;;;;;;;;;;5032802;28;20034;-85
2023/12/14 03:38:53;;;;;;;3.03;1.70;;;;;;;;;;5034970;28;20450;-85
2023/12/14 03:41:19;;;;;;;1.83;1.48;;;;;;;;;;5035624;28;20074;-85
2023/12/14 03:43:45;;;;;;;1.98;1.40;;;;;;;;;;5034868;28;20064;-85
2023/12/14 03:46:11;;;;;;;1.52;1.30;;;;;;;;;;5036653;28;20030;-86
2023/12/14 03:48:36;;;;;;;2.53;1.30;;;;;;;;;;5003186;28;20033;-86
2023/12/14 03:51:05;;;;;;;1.52;1.15;;;;;;;;;;5031780;28;20026;-86
2023/12/14 03:53:31;;;;;;;1.08;0.98;;;;;;;;;;5017042;28;20060;-85
2023/12/14 03:56:00;;;;;;;1.15;0.90;;;;;;;;;;5009744;28;20033;-85
2023/12/14 03:58:26;;;;;;;1.05;0.80;;;;;;;;;;5033249;28;20434;-85
2023/12/14 04:00:52;;;;;;;1.40;1.00;;;;;;;;;;5033306;28;20112;-85
2023/12/14 04:03:17;;;;;;;1.27;1.00;;;;;;;;;;5013937;28;20495;-86
2023/12/14 04:05:44;;;;;;;1.17;1.08;;;;;;;;;;5017651;28;20036;-86
2023/12/14 04:08:10;;;;;;;1.77;1.35;;;;;;;;;;5028026;28;20042;-86
2023/12/14 04:10:36;;;;;;;2.00;1.30;;;;;;;;;;5036117;28;20042;-86
2023/12/14 04:13:02;;;;;;;1.30;0.90;;;;;;;;;;5020098;28;20076;-86
2023/12/14 04:15:28;;;;;;;1.48;1.00;;;;;;;;;;5032647;28;20033;-86
2023/12/14 04:17:53;;;;;;;3.13;1.23;;;;;;;;;;5031261;28;20063;-86
2023/12/14 04:20:19;;;;;;;1.23;1.00;;;;;;;;;;5032681;28;20124;-86
2023/12/14 04:22:45;;;;;;;0.70;0.70;;;;;;;;;;5012558;28;20725;-85
2023/12/14 04:25:10;;;;;;;1.63;1.08;;;;;;;;;;5032108;28;20037;-86
2023/12/14 04:27:36;;;;;;;2.20;1.27;;;;;;;;;;5033251;28;20045;-85
2023/12/14 04:30:01;;;;;;;2.03;1.20;;;;;;;;;;5031645;28;20534;-86
2023/12/14 04:32:27;;;;;;;2.58;1.30;;;;;;;;;;5032281;28;20040;-86
2023/12/14 04:34:53;;;;;;;2.55;1.20;;;;;;;;;;5011815;28;20033;-86
2023/12/14 04:37:18;;;;;;;3.10;0.88;;;;;;;;;;5030892;28;20044;-86
2023/12/14 04:39:44;;;;;;;1.35;0.90;;;;;;;;;;5029075;28;20026;-85
2023/12/14 04:42:09;;;;;;;1.27;0.88;;;;;;;;;;5034428;28;20072;-86
2023/12/14 04:44:35;;;;;;;1.58;0.90;;;;;;;;;;5017891;28;20107;-86
2023/12/14 04:47:00;;;;;;;3.53;1.75;;;;;;;;;;5031358;28;20041;-86
2023/12/14 04:49:26;;;;;;;0.60;0.60;;;;;;;;;;5031073;28;20037;-85
2023/12/14 04:51:51;;;;;;;0.50;0.50;;;;;;;;;;5034078;28;20038;-85
2023/12/14 04:54:17;;;;;;;0.50;0.50;;;;;;;;;;5014147;28;20055;-85
2023/12/14 04:56:45;;;;;;;0.40;0.40;;;;;;;;;;5016354;28;20033;-85
2023/12/14 04:59:11;;;;;;;0.73;0.50;;;;;;;;;;5031266;28;20053;-85
2023/12/14 05:01:36;;;;;;;1.23;0.70;;;;;;;;;;5021767;28;20041;-85
2023/12/14 05:04:02;;;;;;;0.50;0.50;;;;;;;;;;5033298;28;20033;-85
2023/12/14 05:06:29;;;;;;;1.45;0.73;;;;;;;;;;5011532;28;20032;-85
2023/12/14 05:08:54;;;;;;;0.75;0.70;;;;;;;;;;5012225;28;20052;-84
2023/12/14 05:11:20;;;;;;;1.42;0.70;;;;;;;;;;5024827;28;20056;-84
2023/12/14 05:13:45;;;;;;;1.00;0.70;;;;;;;;;;5027646;28;20108;-84
2023/12/14 05:16:14;;;;;;;2.42;0.73;;;;;;;;;;5027315;28;20025;-85
2023/12/14 05:18:40;;;;;;;1.00;0.77;;;;;;;;;;5027450;28;20518;-86
2023/12/14 05:21:06;;;;;;;0.73;0.63;;;;;;;;;;5031863;28;20042;-85
2023/12/14 05:23:31;;;;;;;0.68;0.60;;;;;;;;;;5030635;28;20034;-86
2023/12/14 05:25:57;;;;;;;0.50;0.50;;;;;;;;;;5021027;28;20444;-85
2023/12/14 05:28:22;;;;;;;0.82;0.60;;;;;;;;;;5015541;28;20029;-85
2023/12/14 05:30:48;;;;;;;0.70;0.50;;;;;;;;;;5018016;28;20124;-85
2023/12/14 05:33:14;;;;;;;0.40;0.40;;;;;;;;;;5016936;28;20399;-85
2023/12/14 05:35:39;;;;;;;0.38;0.32;;;;;;;;;;5026055;28;20041;-86
2023/12/14 05:38:05;;;;;;;0.43;0.30;;;;;;;;;;5028085;28;20029;-85
2023/12/14 05:40:31;;;;;;;0.40;0.30;;;;;;;;;;5029411;28;20036;-85
2023/12/14 05:42:57;;;;;;;0.50;0.20;;;;;;;;;;5033270;28;20507;-85
2023/12/14 05:45:22;;;;;;;0.30;0.28;;;;;;;;;;5008908;28;20072;-85
2023/12/14 05:47:48;;;;;;;0.30;0.20;;;;;;;;;;4994883;28;20037;-86
2023/12/14 05:50:13;;;;;;;0.38;0.28;;;;;;;;;;5030066;28;20036;-85
2023/12/14 05:52:40;;;;;;;2.47;0.20;;;;;;;;;;5033264;28;20049;-84
2023/12/14 05:55:10;;;;;;;0.10;0.10;;;;;;;;;;5012435;28;20673;-85
2023/12/14 05:57:36;;;;;;;0.22;0.20;;;;;;;;;;5028452;28;20033;-86
2023/12/14 06:00:03;;;;;;;0.45;0.30;;;;;;;;;;5026935;28;20106;-85
2023/12/14 06:02:31;;;;;;;0.47;0.20;;;;;;;;;;5028413;28;20088;-86
2023/12/14 06:04:57;;;;;;;0.30;0.20;;;;;;;;;;5017404;28;20090;-85
2023/12/14 06:07:23;;;;;;;0.20;0.20;;;;;;;;;;5028220;28;20063;-85
2023/12/14 06:09:49;;;;;;;0.00;0.00;;;;;;;;;;5007981;28;20945;-85
2023/12/14 06:12:14;;;;;;;0.10;0.10;;;;;;;;;;5029637;28;20513;-85
2023/12/14 06:14:40;;;;;;;0.40;0.40;;;;;;;;;;5030722;28;20049;-85
2023/12/14 06:17:05;;;;;;;1.00;0.70;;;;;;;;;;5023663;28;20038;-86
2023/12/14 06:19:31;;;;;;;8.10;4.57;;;;;;;;;;5033946;28;20040;-86
2023/12/14 06:21:56;;;;;;;5.80;3.22;;;;;;;;;;5015490;28;20095;-86
2023/12/14 06:24:22;;;;;;;4.80;2.45;;;;;;;;;;5029617;28;20091;-86
2023/12/14 06:26:47;;;;;;;4.28;2.47;;;;;;;;;;4998513;28;20068;-87
2023/12/14 06:29:13;;;;;;;4.60;3.17;;;;;;;;;;5036268;28;20037;-87
2023/12/14 06:31:39;;;;;;;2.60;2.00;;;;;;;;;;5034756;28;20034;-87
2023/12/14 06:34:05;;;;;;;2.63;1.95;;;;;;;;;;5034734;28;20033;-87
2023/12/14 06:36:31;;;;;;;3.33;2.45;;;;;;;;;;5035509;28;20116;-86
2023/12/14 06:38:58;;;;;;;3.40;2.58;;;;;;;;;;5034322;28;20026;-86
2023/12/14 06:41:25;;;;;;;4.10;3.10;;;;;;;;;;5021801;28;20128;-86
2023/12/14 06:43:51;;;;;;;4.03;2.92;;;;;;;;;;5039209;28;20093;-85
2023/12/14 06:46:17;;;;;;;5.07;3.47;;;;;;;;;;5044216;28;20033;-85
2023/12/14 06:48:42;;;;;;;4.60;3.38;;;;;;;;;;5008131;28;20022;-85
2023/12/14 06:51:08;;;;;;;5.25;4.10;;;;;;;;;;5031119;28;20411;-86
2023/12/14 06:53:40;;;;;;;4.68;3.60;;;;;;;;;;5013785;28;20095;-86
2023/12/14 06:56:09;;;;;;;5.10;3.88;;;;;;;;;;5024263;28;20047;-86
2023/12/14 06:58:35;;;;;;;5.30;3.70;;;;;;;;;;5035421;28;20029;-86
2023/12/14 07:01:00;;;;;;;4.78;3.45;;;;;;;;;;5033453;28;20427;-86
2023/12/14 07:03:26;;;;;;;3.83;3.00;;;;;;;;;;5033976;28;20033;-86
2023/12/14 07:05:51;;;;;;;4.28;3.30;;;;;;;;;;4998096;28;20037;-85
2023/12/14 07:08:17;;;;;;;3.92;2.72;;;;;;;;;;5034056;28;20899;-85
2023/12/14 07:10:42;;;;;;;4.18;2.72;;;;;;;;;;5018023;28;20042;-85
2023/12/14 07:13:08;;;;;;;3.83;3.05;;;;;;;;;;5035724;28;20554;-86
2023/12/14 07:15:34;;;;;;;3.92;2.83;;;;;;;;;;5037011;28;20086;-84
2023/12/14 07:17:59;;;;;;;4.65;3.20;;;;;;;;;;5027420;28;20088;-85
2023/12/14 07:20:25;;;;;;;7.05;3.47;;;;;;;;;;5030897;28;20040;-86
2023/12/14 07:22:50;;;;;;;3.78;2.47;;;;;;;;;;5032560;28;20052;-85
2023/12/14 07:25:16;;;;;;;2.60;1.92;;;;;;;;;;5030979;28;20041;-85
2023/12/14 07:27:42;;;;;;;3.58;1.90;;;;;;;;;;5034174;28;20061;-84
2023/12/14 07:30:09;;;;;;;2.58;2.00;;;;;;;;;;5019414;28;20037;-85
2023/12/14 07:32:34;;;;;;;3.08;2.20;;;;;;;;;;5016598;28;20029;-84
2023/12/14 07:35:00;;;;;;;3.88;2.42;;;;;;;;;;5032529;28;20038;-86
2023/12/14 07:37:25;;;;;;;7.85;4.75;;;;;;;;;;5032679;28;20070;-86
2023/12/14 07:39:51;;;;;;;9.68;4.35;;;;;;;;;;5031030;28;20029;-84
2023/12/14 07:42:19;;;;;;;4.85;2.70;;;;;;;;;;5035488;28;20055;-85
2023/12/14 07:44:45;;;;;;;3.97;2.70;;;;;;;;;;5040613;28;20041;-84
2023/12/14 07:47:11;;;;;;;4.20;2.40;;;;;;;;;;5035246;28;20040;-85
2023/12/14 07:49:36;;;;;;;3.33;2.15;;;;;;;;;;5015071;28;20029;-83
2023/12/14 07:52:02;;;;;;;2.90;2.00;;;;;;;;;;5029257;28;20025;-86
2023/12/14 07:54:28;;;;;;;3.45;2.30;;;;;;;;;;5013092;28;20068;-85
2023/12/14 07:56:54;;;;;;;4.68;3.45;;;;;;;;;;5014289;28;20038;-85
2023/12/14 07:59:20;;;;;;;6.65;3.60;;;;;;;;;;5020049;28;20051;-85
2023/12/14 08:01:46;;;;;;;5.80;2.90;;;;;;;;;;5008214;28;20574;-85
2023/12/14 08:04:12;;;;;;;6.38;3.97;;;;;;;;;;5029537;28;20102;-84
2023/12/14 08:06:40;;;;;;;6.20;4.05;;;;;;;;;;5026471;28;20633;-86
2023/12/14 08:09:06;;;;;;;4.68;3.05;;;;;;;;;;5034124;28;20038;-86
2023/12/14 08:11:33;;;;;;;4.55;2.97;;;;;;;;;;5021387;28;20183;-86
2023/12/14 08:13:58;;;;;;;3.85;2.28;;;;;;;;;;5026634;28;20545;-85
2023/12/14 08:16:24;;;;;;;4.63;3.10;;;;;;;;;;5004475;28;20061;-85
2023/12/14 08:18:49;;;;;;;4.35;2.97;;;;;;;;;;5014261;28;20033;-85
2023/12/14 08:21:16;;;;;;;5.38;3.80;;;;;;;;;;5031635;28;20072;-86
2023/12/14 08:23:42;;;;;;;3.70;2.53;;;;;;;;;;5015992;28;20499;-86
2023/12/14 08:26:09;;;;;;;5.50;3.42;;;;;;;;;;5027630;28;20030;-86
2023/12/14 08:28:35;;;;;;;4.18;2.70;;;;;;;;;;5019362;28;20035;-87
2023/12/14 08:31:02;;;;;;;4.90;3.05;;;;;;;;;;5033167;28;20410;-86
2023/12/14 08:33:28;;;;;;;4.75;2.78;;;;;;;;;;5031700;28;20041;-86
2023/12/14 08:35:55;;;;;;;3.53;2.47;;;;;;;;;;5033123;28;20029;-86
2023/12/14 08:38:20;;;;;;;4.15;2.60;;;;;;;;;;5030887;28;20044;-85
2023/12/14 08:40:46;;;;;;;5.45;2.55;;;;;;;;;;5025362;28;20112;-86
2023/12/14 08:43:12;;;;;;;4.00;2.30;;;;;;;;;;5030890;28;20045;-86
2023/12/14 08:45:37;;;;;;;3.35;2.20;;;;;;;;;;5032915;28;20692;-86
2023/12/14 08:48:03;;;;;;;4.53;2.20;;;;;;;;;;5032367;28;20056;-85
2023/12/14 08:50:28;;;;;;;3.28;2.05;;;;;;;;;;5031625;28;20120;-85
2023/12/14 08:52:54;;;;;;;3.53;1.73;;;;;;;;;;5027822;28;20065;-87
2023/12/14 08:55:19;;;;;;;2.53;1.58;;;;;;;;;;5018030;28;20032;-87
2023/12/14 08:57:45;;;;;;;3.65;2.22;;;;;;;;;;5028712;28;20059;-90
2023/12/14 09:00:11;;;;;;;3.85;2.08;;;;;;;;;;5030455;28;20037;-89
2023/12/14 09:02:37;;;;;;;5.30;2.75;;;;;;;;;;5026221;28;20112;-89
2023/12/14 09:05:04;;;;;;;3.90;2.17;;;;;;;;;;5025900;28;20472;-86
2023/12/14 09:07:30;;;;;;;4.32;2.38;;;;;;;;;;5018320;28;20036;-85
2023/12/14 09:09:55;;;;;;;2.70;1.90;;;;;;;;;;5006133;28;20091;-86
2023/12/14 09:12:21;;;;;;;6.63;2.40;;;;;;;;;;5030418;28;20095;-87
2023/12/14 09:14:47;;;;;;;2.63;1.75;;;;;;;;;;5013225;28;20522;-88
2023/12/14 09:17:13;;;;;;;6.18;3.42;;;;;;;;;;5026819;28;20045;-87
2023/12/14 09:19:38;;;;;;;6.65;3.70;;;;;;;;;;5002783;28;20083;-86
2023/12/14 09:22:04;;;;;;;6.45;3.97;;;;;;;;;;5027787;28;20034;-86
2023/12/14 09:24:30;;;;;;;5.00;3.42;;;;;;;;;;5028327;28;20148;-87
2023/12/14 09:26:55;;;;;;;7.38;3.05;;;;;;;;;;5026477;28;20040;-86
2023/12/14 09:29:21;;;;;;;4.22;2.42;;;;;;;;;;5003518;28;20069;-86
2023/12/14 09:31:46;;;;;;;4.40;2.75;;;;;;;;;;5029944;28;20091;-86
2023/12/14 09:34:12;;;;;;;4.28;2.88;;;;;;;;;;5025557;28;20045;-87
2023/12/14 09:36:39;;;;;;;5.45;3.33;;;;;;;;;;5026727;28;20033;-86
2023/12/14 09:39:05;;;;;;;6.97;3.47;;;;;;;;;;5028923;28;20041;-86
2023/12/14 09:41:31;;;;;;;5.47;3.05;;;;;;;;;;5034724;28;20037;-89
2023/12/14 09:43:56;;;;;;;4.25;2.75;;;;;;;;;;5033204;28;20044;-88
2023/12/14 09:46:23;;;;;;;4.45;1.90;;;;;;;;;;5040356;28;20037;-88
2023/12/14 09:48:50;;;;;;;4.35;2.75;;;;;;;;;;5019519;28;20034;-89
2023/12/14 09:51:16;;;;;;;3.47;1.98;;;;;;;;;;5037546;28;20071;-88
2023/12/14 09:53:42;;;;;;;3.00;2.00;;;;;;;;;;5038377;28;20034;-88
2023/12/14 09:56:08;;;;;;;2.70;1.90;;;;;;;;;;5034679;28;20045;-89
2023/12/14 09:58:34;;;;;;;4.47;2.20;;;;;;;;;;5021014;28;20060;-89
2023/12/14 10:01:04;;;;;;;5.75;2.60;;;;;;;;;;5020255;28;20092;-89
2023/12/14 10:03:31;;;;;;;4.70;3.20;;;;;;;;;;5033827;28;20025;-89
2023/12/14 10:05:58;;;;;;;4.88;2.97;;;;;;;;;;5020041;28;20399;-89
2023/12/14 10:08:26;;;;;;;3.90;2.58;;;;;;;;;;5036895;28;20398;-89
2023/12/14 10:10:55;;;;;;;3.78;2.30;;;;;;;;;;5016492;28;20047;-88
2023/12/14 10:13:37;;;;;;;3.55;2.35;;;;;;;;;;5041344;28;20046;-89
2023/12/14 10:16:03;;;;;;;3.85;2.00;;;;;;;;;;5039240;28;20047;-89
2023/12/14 10:18:34;;;;;;;3.35;2.10;;;;;;;;;;5022125;28;20017;-87
2023/12/14 10:20:59;;;;;;;3.75;2.05;;;;;;;;;;5014229;28;20034;-88
2023/12/14 10:23:27;;;;;;;2.88;1.77;;;;;;;;;;5021780;28;20045;-88
2023/12/14 10:25:52;;;;;;;2.10;1.30;;;;;;;;;;5036526;28;20073;-88
2023/12/14 10:28:18;;;;;;;3.40;1.65;;;;;;;;;;5014832;28;20045;-88
2023/12/14 10:30:43;;;;;;;3.40;2.40;;;;;;;;;;5026259;28;20083;-87
2023/12/14 10:33:09;;;;;;;3.53;2.17;;;;;;;;;;5013066;28;20022;-87
2023/12/14 10:35:35;;;;;;;2.53;1.88;;;;;;;;;;5034536;28;20030;-87
2023/12/14 10:38:08;;;;;;;2.65;1.80;;;;;;;;;;5021269;28;20543;-88
2023/12/14 10:40:40;;;;;;;3.65;1.80;;;;;;;;;;5014803;28;20034;-87
2023/12/14 10:43:06;;;;;;;2.55;1.80;;;;;;;;;;5000832;28;20034;-87
2023/12/14 10:45:33;;;;;;;3.80;2.30;;;;;;;;;;5030258;28;20038;-88
2023/12/14 10:48:00;;;;;;;3.35;2.30;;;;;;;;;;4999344;28;20040;-87
2023/12/14 10:50:30;;;;;;;3.13;1.70;;;;;;;;;;5011875;28;20555;-87
2023/12/14 10:52:57;;;;;;;2.72;2.00;;;;;;;;;;5014124;28;20049;-87
2023/12/14 10:55:25;;;;;;;4.63;1.90;;;;;;;;;;5034147;28;20522;-87
2023/12/14 10:57:54;;;;;;;2.80;1.70;;;;;;;;;;5028070;28;20030;-87
2023/12/14 11:00:19;;;;;;;2.70;1.60;;;;;;;;;;5018219;28;20028;-87
2023/12/14 11:02:46;;;;;;;3.65;1.80;;;;;;;;;;5027778;28;20037;-87
2023/12/14 11:05:15;;;;;;;2.60;1.60;;;;;;;;;;5030955;28;20057;-88
2023/12/14 11:07:47;;;;;;;2.45;1.70;;;;;;;;;;5033477;28;20037;-88
2023/12/14 11:10:14;;;;;;;2.78;1.60;;;;;;;;;;5035343;28;20552;-90
2023/12/14 11:13:02;;;;;;;2.45;1.45;;;;;;;;;;5017530;28;20038;-87
2023/12/14 11:15:34;;;;;;;2.70;1.48;;;;;;;;;;5033542;28;20041;-86
2023/12/14 11:18:08;;;;;;;2.63;1.80;;;;;;;;;;5037693;28;20059;-87
2023/12/14 11:21:00;;;;;;;3.35;2.00;;;;;;;;;;5034179;28;20037;-85
2023/12/14 11:23:29;;;;;;;3.13;1.88;;;;;;;;;;5036896;28;20083;-87
2023/12/14 11:26:03;;;;;;;3.38;2.00;;;;;;;;;;5023850;28;20139;-85
2023/12/14 11:28:41;;;;;;;2.33;1.50;;;;;;;;;;5035319;28;20089;-88
2023/12/14 11:31:10;;;;;;;2.70;1.63;;;;;;;;;;5037229;28;20094;-88
2023/12/14 11:33:36;;;;;;;4.20;2.72;;;;;;;;;;5024980;28;20076;-88
2023/12/14 11:36:03;;;;;;;4.15;2.55;;;;;;;;;;5009053;28;20026;-88
2023/12/14 11:38:29;;;;;;;3.72;2.05;;;;;;;;;;5036650;28;20380;-88
2023/12/14 11:40:55;;;;;;;3.03;2.05;;;;;;;;;;5038067;28;20072;-89
2023/12/14 11:43:21;;;;;;;2.50;1.70;;;;;;;;;;5017119;28;20041;-88
2023/12/14 11:45:47;;;;;;;2.60;1.83;;;;;;;;;;5026192;28;20049;-89
2023/12/14 11:48:13;;;;;;;3.05;1.50;;;;;;;;;;5038786;28;20038;-85
2023/12/14 11:50:40;;;;;;;3.13;1.30;;;;;;;;;;5020785;28;20017;-86
2023/12/14 11:53:07;;;;;;;1.63;1.30;;;;;;;;;;5033120;28;20042;-85
2023/12/14 11:55:35;;;;;;;2.15;1.30;;;;;;;;;;5016282;28;20041;-86
2023/12/14 11:58:01;;;;;;;2.38;1.20;;;;;;;;;;5018553;28;20094;-86
2023/12/14 12:00:28;;;;;;;2.53;1.33;;;;;;;;;;5035812;28;20148;-85
2023/12/14 12:03:16;;;;;;;1.67;1.27;;;;;;;;;;5020979;28;20114;-85
2023/12/14 12:05:42;;;;;;;2.13;1.30;;;;;;;;;;5032130;28;20029;-85
2023/12/14 12:08:09;;;;;;;1.95;1.40;;;;;;;;;;5033899;28;20034;-85
2023/12/14 12:10:35;;;;;;;2.25;1.40;;;;;;;;;;5031778;28;20022;-85
2023/12/14 12:13:06;;;;;;;3.10;1.60;;;;;;;;;;5014572;28;20087;-85
2023/12/14 12:15:35;;;;;;;2.67;1.65;;;;;;;;;;5035237;28;20041;-85
2023/12/14 12:18:03;;;;;;;2.60;1.80;;;;;;;;;;5021327;28;20108;-85
2023/12/14 12:20:28;;;;;;;2.00;1.42;;;;;;;;;;5014159;28;20626;-85
2023/12/14 12:22:54;;;;;;;3.45;1.77;;;;;;;;;;5033816;28;20080;-85
2023/12/14 12:25:19;;;;;;;4.15;2.67;;;;;;;;;;5032614;28;20053;-84
2023/12/14 12:27:46;;;;;;;8.80;5.57;;;;;;;;;;5028281;28;20038;-84
2023/12/14 12:30:12;;;;;;;7.43;5.32;;;;;;;;;;5031272;28;20037;-85
2023/12/14 12:32:39;;;;;;;12.50;8.50;;;;;;;;;;5033775;28;20084;-87
2023/12/14 12:35:05;;;;;;;9.43;4.57;;;;;;;;;;5032423;28;20014;-86
2023/12/14 12:37:30;;;;;;;11.48;7.28;;;;;;;;;;5013501;28;20048;-89
2023/12/14 12:39:56;;;;;;;5.63;3.80;;;;;;;;;;5014692;28;20703;-89
2023/12/14 12:42:21;;;;;;;4.65;2.90;;;;;;;;;;5032749;28;20228;-88
2023/12/14 12:44:47;;;;;;;4.85;2.75;;;;;;;;;;5030451;28;20041;-84
2023/12/14 12:47:13;;;;;;;4.25;2.60;;;;;;;;;;5026143;28;20036;-85
2023/12/14 12:49:38;;;;;;;4.45;2.70;;;;;;;;;;5028501;28;20583;-84
2023/12/14 12:52:04;;;;;;;4.20;2.53;;;;;;;;;;5032383;28;20033;-88
2023/12/14 12:54:32;;;;;;;4.68;3.05;;;;;;;;;;5037413;28;20034;-89
2023/12/14 12:56:57;;;;;;;5.13;3.20;;;;;;;;;;5029451;28;20047;-86
2023/12/14 12:59:23;;;;;;;3.20;1.70;;;;;;;;;;5044668;28;20057;-85
2023/12/14 13:01:48;;;;;;;2.33;1.60;;;;;;;;;;5034889;28;20033;-87
2023/12/14 13:04:21;;;;;;;7.63;4.32;;;;;;;;;;5032679;28;20033;-89
2023/12/14 13:06:50;;;;;;;1.85;0.90;;;;;;;;;;5013889;28;20069;-87
2023/12/14 13:09:16;;;;;;;1.77;1.25;;;;;;;;;;5035241;28;20069;-89
2023/12/14 13:11:43;;;;;;;3.72;2.10;;;;;;;;;;5020604;28;20048;-88
2023/12/14 13:14:08;;;;;;;1.67;1.27;;;;;;;;;;5030838;28;20097;-90
2023/12/14 13:16:35;;;;;;;3.67;1.67;;;;;;;;;;5033461;28;20068;-88
2023/12/14 13:19:00;;;;;;;4.07;1.80;;;;;;;;;;5012847;28;20411;-89
2023/12/14 13:21:26;;;;;;;4.68;2.70;;;;;;;;;;5030342;28;20037;-88
2023/12/14 13:23:51;;;;;;;2.58;1.60;;;;;;;;;;5030943;28;20036;-88
2023/12/14 13:26:17;;;;;;;2.80;1.80;;;;;;;;;;5031300;28;20124;-87
2023/12/14 13:28:42;;;;;;;0.95;0.80;;;;;;;;;;5030933;28;20045;-86
2023/12/14 13:31:08;;;;;;;1.33;0.90;;;;;;;;;;5034587;28;20053;-88
2023/12/14 13:33:33;;;;;;;1.90;1.35;;;;;;;;;;5034390;28;20089;-88
2023/12/14 13:35:59;;;;;;;1.77;1.20;;;;;;;;;;5034541;28;20048;-88
2023/12/14 13:38:24;;;;;;;1.92;1.23;;;;;;;;;;5019172;28;20049;-88
2023/12/14 13:40:50;;;;;;;1.35;0.95;;;;;;;;;;5038122;28;20047;-89
2023/12/14 13:43:15;;;;;;;1.50;1.00;;;;;;;;;;5041252;28;20045;-88
2023/12/14 13:45:44;;;;;;;1.63;1.00;;;;;;;;;;5022260;28;20053;-88
2023/12/14 13:48:10;;;;;;;1.23;0.98;;;;;;;;;;5034521;28;20465;-88
2023/12/14 13:50:35;;;;;;;2.20;0.80;;;;;;;;;;5035739;28;20041;-88
2023/12/14 13:53:01;;;;;;;1.95;0.90;;;;;;;;;;5043792;28;20063;-89
2023/12/14 13:55:28;;;;;;;1.02;0.75;;;;;;;;;;5037229;28;20551;-88
2023/12/14 13:57:53;;;;;;;1.67;0.90;;;;;;;;;;5021150;28;20053;-89
2023/12/14 14:00:19;;;;;;;0.70;0.70;;;;;;;;;;5036844;28;20491;-88
2023/12/14 14:02:45;;;;;;;0.85;0.80;;;;;;;;;;5021776;28;20030;-88
2023/12/14 14:05:10;;;;;;;0.70;0.70;;;;;;;;;;5030394;28;20115;-87
2023/12/14 14:07:36;;;;;;;1.00;0.73;;;;;;;;;;5044205;28;20033;-88
2023/12/14 14:10:02;;;;;;;1.13;0.90;;;;;;;;;;5013377;28;20486;-89
2023/12/14 14:12:27;;;;;;;1.13;0.80;;;;;;;;;;5038756;28;20059;-87
2023/12/14 14:14:52;;;;;;;1.17;0.90;;;;;;;;;;5036892;28;20105;-87
2023/12/14 14:17:18;;;;;;;1.05;0.90;;;;;;;;;;5020624;28;20045;-88
2023/12/14 14:19:43;;;;;;;2.28;0.80;;;;;;;;;;5039401;28;20085;-88
2023/12/14 14:22:09;;;;;;;0.68;0.68;;;;;;;;;;5039177;28;20411;-89
2023/12/14 14:24:35;;;;;;;1.67;0.90;;;;;;;;;;5043006;28;20033;-88
2023/12/14 14:27:01;;;;;;;1.98;0.95;;;;;;;;;;5035541;28;20033;-88
2023/12/14 14:29:26;;;;;;;3.58;0.82;;;;;;;;;;5038451;28;20060;-89
2023/12/14 14:31:52;;;;;;;1.52;1.10;;;;;;;;;;5038350;28;20573;-88
2023/12/14 14:34:17;;;;;;;1.30;0.90;;;;;;;;;;5025788;28;20040;-87
2023/12/14 14:36:45;;;;;;;0.80;0.75;;;;;;;;;;5040138;28;20037;-89